sensor_id;sensor_type;location;lat;lon;timestamp;P1;durP1;ratioP1;P2;durP2;ratioP2
75427;SDS011;64008;55.612;37.698;2023-09-19T00:00:57;13.93;;;7.68;;
75427;SDS011;64008;55.612;37.698;2023-09-19T00:03:23;10.82;;;6.13;;
75427;SDS011;64008;55.612;37.698;2023-09-19T00:05:50;13.88;;;6.70;;
75427;SDS011;64008;55.612;37.698;2023-09-19T00:08:16;15.45;;;6.63;;
75427;SDS011;64008;55.612;37.698;2023-09-19T00:10:42;15.85;;;6.22;;
75427;SDS011;64008;55.612;37.698;2023-09-19T00:15:42;14.38;;;6.68;;
75427;SDS011;64008;55.612;37.698;2023-09-19T00:18:14;16.42;;;7.85;;
75427;SDS011;64008;55.612;37.698;2023-09-19T00:20:46;13.20;;;7.72;;
75427;SDS011;64008;55.612;37.698;2023-09-19T00:23:14;22.90;;;8.40;;
75427;SDS011;64008;55.612;37.698;2023-09-19T00:25:40;22.98;;;9.35;;
75427;SDS011;64008;55.612;37.698;2023-09-19T00:28:07;19.33;;;10.23;;
75427;SDS011;64008;55.612;37.698;2023-09-19T00:30:33;20.67;;;9.68;;
75427;SDS011;64008;55.612;37.698;2023-09-19T00:32:58;21.52;;;9.77;;
75427;SDS011;64008;55.612;37.698;2023-09-19T00:35:25;18.00;;;10.00;;
75427;SDS011;64008;55.612;37.698;2023-09-19T00:37:52;21.27;;;10.52;;
75427;SDS011;64008;55.612;37.698;2023-09-19T00:40:18;20.10;;;10.05;;
75427;SDS011;64008;55.612;37.698;2023-09-19T00:42:46;23.10;;;10.30;;
75427;SDS011;64008;55.612;37.698;2023-09-19T00:47:43;20.70;;;9.93;;
75427;SDS011;64008;55.612;37.698;2023-09-19T00:50:11;18.63;;;10.38;;
75427;SDS011;64008;55.612;37.698;2023-09-19T00:52:39;21.13;;;10.77;;
75427;SDS011;64008;55.612;37.698;2023-09-19T00:55:07;20.88;;;10.55;;
75427;SDS011;64008;55.612;37.698;2023-09-19T00:57:33;19.25;;;10.48;;
75427;SDS011;64008;55.612;37.698;2023-09-19T01:00:00;20.60;;;11.63;;
75427;SDS011;64008;55.612;37.698;2023-09-19T01:02:31;26.38;;;12.30;;
75427;SDS011;64008;55.612;37.698;2023-09-19T01:04:57;20.50;;;11.38;;
75427;SDS011;64008;55.612;37.698;2023-09-19T01:07:23;24.40;;;12.77;;
75427;SDS011;64008;55.612;37.698;2023-09-19T01:09:49;22.13;;;12.38;;
75427;SDS011;64008;55.612;37.698;2023-09-19T01:12:16;30.92;;;12.65;;
75427;SDS011;64008;55.612;37.698;2023-09-19T01:14:55;24.85;;;12.18;;
75427;SDS011;64008;55.612;37.698;2023-09-19T01:17:31;22.92;;;12.00;;
75427;SDS011;64008;55.612;37.698;2023-09-19T01:23:17;24.33;;;12.32;;
75427;SDS011;64008;55.612;37.698;2023-09-19T01:31:28;27.33;;;12.88;;
75427;SDS011;64008;55.612;37.698;2023-09-19T01:36:32;26.05;;;13.48;;
75427;SDS011;64008;55.612;37.698;2023-09-19T01:39:07;30.05;;;14.40;;
75427;SDS011;64008;55.612;37.698;2023-09-19T01:41:45;31.00;;;14.52;;
75427;SDS011;64008;55.612;37.698;2023-09-19T01:44:22;25.98;;;12.75;;
75427;SDS011;64008;55.612;37.698;2023-09-19T01:46:52;27.77;;;12.70;;
75427;SDS011;64008;55.612;37.698;2023-09-19T01:52:31;27.38;;;12.95;;
75427;SDS011;64008;55.612;37.698;2023-09-19T01:55:07;27.60;;;13.82;;
75427;SDS011;64008;55.612;37.698;2023-09-19T01:57:40;26.23;;;12.65;;
75427;SDS011;64008;55.612;37.698;2023-09-19T02:00:09;24.88;;;12.50;;
75427;SDS011;64008;55.612;37.698;2023-09-19T02:02:40;24.17;;;11.88;;
75427;SDS011;64008;55.612;37.698;2023-09-19T02:05:09;27.73;;;12.68;;
75427;SDS011;64008;55.612;37.698;2023-09-19T02:07:35;25.92;;;13.32;;
75427;SDS011;64008;55.612;37.698;2023-09-19T02:10:03;26.42;;;12.30;;
75427;SDS011;64008;55.612;37.698;2023-09-19T02:12:31;23.20;;;11.75;;
75427;SDS011;64008;55.612;37.698;2023-09-19T02:15:00;25.02;;;12.82;;
75427;SDS011;64008;55.612;37.698;2023-09-19T02:17:26;22.50;;;11.70;;
75427;SDS011;64008;55.612;37.698;2023-09-19T02:19:52;23.67;;;12.60;;
75427;SDS011;64008;55.612;37.698;2023-09-19T02:22:18;27.35;;;12.75;;
75427;SDS011;64008;55.612;37.698;2023-09-19T02:24:44;21.80;;;12.20;;
75427;SDS011;64008;55.612;37.698;2023-09-19T02:27:13;23.48;;;13.15;;
75427;SDS011;64008;55.612;37.698;2023-09-19T02:29:40;23.70;;;13.00;;
75427;SDS011;64008;55.612;37.698;2023-09-19T02:32:06;26.50;;;12.57;;
75427;SDS011;64008;55.612;37.698;2023-09-19T02:34:32;25.35;;;12.32;;
75427;SDS011;64008;55.612;37.698;2023-09-19T02:37:01;22.67;;;11.93;;
75427;SDS011;64008;55.612;37.698;2023-09-19T02:39:30;23.73;;;12.95;;
75427;SDS011;64008;55.612;37.698;2023-09-19T02:41:56;21.42;;;11.55;;
75427;SDS011;64008;55.612;37.698;2023-09-19T02:44:22;21.60;;;11.55;;
75427;SDS011;64008;55.612;37.698;2023-09-19T02:46:49;26.05;;;12.52;;
75427;SDS011;64008;55.612;37.698;2023-09-19T02:49:14;23.83;;;11.98;;
75427;SDS011;64008;55.612;37.698;2023-09-19T02:51:40;22.42;;;11.40;;
75427;SDS011;64008;55.612;37.698;2023-09-19T02:54:06;21.92;;;11.35;;
75427;SDS011;64008;55.612;37.698;2023-09-19T02:56:32;23.20;;;12.20;;
75427;SDS011;64008;55.612;37.698;2023-09-19T02:58:58;26.80;;;11.93;;
75427;SDS011;64008;55.612;37.698;2023-09-19T03:01:25;24.73;;;11.82;;
75427;SDS011;64008;55.612;37.698;2023-09-19T03:06:18;31.30;;;15.10;;
75427;SDS011;64008;55.612;37.698;2023-09-19T03:08:45;27.98;;;13.93;;
75427;SDS011;64008;55.612;37.698;2023-09-19T03:11:11;27.67;;;13.05;;
75427;SDS011;64008;55.612;37.698;2023-09-19T03:13:40;25.17;;;12.50;;
75427;SDS011;64008;55.612;37.698;2023-09-19T03:16:07;25.35;;;11.70;;
75427;SDS011;64008;55.612;37.698;2023-09-19T03:18:36;21.17;;;11.38;;
75427;SDS011;64008;55.612;37.698;2023-09-19T03:21:01;22.00;;;12.27;;
75427;SDS011;64008;55.612;37.698;2023-09-19T03:23:27;22.17;;;11.48;;
75427;SDS011;64008;55.612;37.698;2023-09-19T03:25:54;21.80;;;11.35;;
75427;SDS011;64008;55.612;37.698;2023-09-19T03:28:21;25.35;;;12.85;;
75427;SDS011;64008;55.612;37.698;2023-09-19T03:31:08;26.55;;;13.07;;
75427;SDS011;64008;55.612;37.698;2023-09-19T03:33:33;24.67;;;12.50;;
75427;SDS011;64008;55.612;37.698;2023-09-19T03:35:59;23.50;;;11.55;;
75427;SDS011;64008;55.612;37.698;2023-09-19T03:38:26;23.67;;;12.00;;
75427;SDS011;64008;55.612;37.698;2023-09-19T03:40:52;25.17;;;12.60;;
75427;SDS011;64008;55.612;37.698;2023-09-19T03:43:17;24.63;;;12.43;;
75427;SDS011;64008;55.612;37.698;2023-09-19T03:45:44;26.55;;;13.43;;
75427;SDS011;64008;55.612;37.698;2023-09-19T03:48:11;25.13;;;12.40;;
75427;SDS011;64008;55.612;37.698;2023-09-19T03:50:37;24.17;;;11.80;;
75427;SDS011;64008;55.612;37.698;2023-09-19T03:53:03;26.52;;;11.73;;
75427;SDS011;64008;55.612;37.698;2023-09-19T03:55:30;22.60;;;11.73;;
75427;SDS011;64008;55.612;37.698;2023-09-19T03:57:56;21.90;;;11.95;;
75427;SDS011;64008;55.612;37.698;2023-09-19T04:00:22;22.88;;;11.57;;
75427;SDS011;64008;55.612;37.698;2023-09-19T04:02:49;21.67;;;11.15;;
75427;SDS011;64008;55.612;37.698;2023-09-19T04:05:16;23.65;;;10.82;;
75427;SDS011;64008;55.612;37.698;2023-09-19T04:07:42;23.58;;;10.73;;
75427;SDS011;64008;55.612;37.698;2023-09-19T04:10:07;20.70;;;10.85;;
75427;SDS011;64008;55.612;37.698;2023-09-19T04:12:35;22.80;;;9.98;;
75427;SDS011;64008;55.612;37.698;2023-09-19T04:15:00;19.13;;;9.57;;
75427;SDS011;64008;55.612;37.698;2023-09-19T04:17:26;23.55;;;10.60;;
75427;SDS011;64008;55.612;37.698;2023-09-19T04:19:51;19.75;;;11.10;;
75427;SDS011;64008;55.612;37.698;2023-09-19T04:24:43;19.48;;;10.18;;
75427;SDS011;64008;55.612;37.698;2023-09-19T04:27:09;18.70;;;10.35;;
75427;SDS011;64008;55.612;37.698;2023-09-19T04:29:35;21.60;;;11.35;;
75427;SDS011;64008;55.612;37.698;2023-09-19T04:32:00;19.83;;;9.77;;
75427;SDS011;64008;55.612;37.698;2023-09-19T04:34:29;19.75;;;10.95;;
75427;SDS011;64008;55.612;37.698;2023-09-19T04:36:55;17.60;;;10.40;;
75427;SDS011;64008;55.612;37.698;2023-09-19T04:39:23;20.02;;;10.38;;
75427;SDS011;64008;55.612;37.698;2023-09-19T04:41:51;19.15;;;10.10;;
75427;SDS011;64008;55.612;37.698;2023-09-19T04:44:16;18.50;;;9.43;;
75427;SDS011;64008;55.612;37.698;2023-09-19T04:49:08;18.52;;;10.38;;
75427;SDS011;64008;55.612;37.698;2023-09-19T04:51:34;19.17;;;9.95;;
75427;SDS011;64008;55.612;37.698;2023-09-19T04:54:01;17.23;;;9.38;;
75427;SDS011;64008;55.612;37.698;2023-09-19T04:56:27;19.77;;;9.57;;
75427;SDS011;64008;55.612;37.698;2023-09-19T04:58:57;17.30;;;9.05;;
75427;SDS011;64008;55.612;37.698;2023-09-19T05:01:23;15.32;;;8.88;;
75427;SDS011;64008;55.612;37.698;2023-09-19T05:03:49;14.35;;;8.38;;
75427;SDS011;64008;55.612;37.698;2023-09-19T05:06:18;17.27;;;8.48;;
75427;SDS011;64008;55.612;37.698;2023-09-19T05:08:46;14.57;;;8.70;;
75427;SDS011;64008;55.612;37.698;2023-09-19T05:11:16;18.45;;;8.48;;
75427;SDS011;64008;55.612;37.698;2023-09-19T05:13:47;17.52;;;8.38;;
75427;SDS011;64008;55.612;37.698;2023-09-19T05:16:12;17.33;;;8.27;;
75427;SDS011;64008;55.612;37.698;2023-09-19T05:18:38;18.00;;;8.25;;
75427;SDS011;64008;55.612;37.698;2023-09-19T05:21:03;14.90;;;9.02;;
75427;SDS011;64008;55.612;37.698;2023-09-19T05:23:29;15.18;;;8.32;;
75427;SDS011;64008;55.612;37.698;2023-09-19T05:25:56;19.85;;;9.35;;
75427;SDS011;64008;55.612;37.698;2023-09-19T05:28:25;25.55;;;9.07;;
75427;SDS011;64008;55.612;37.698;2023-09-19T05:30:52;16.52;;;8.88;;
75427;SDS011;64008;55.612;37.698;2023-09-19T05:33:18;15.35;;;8.25;;
75427;SDS011;64008;55.612;37.698;2023-09-19T05:35:44;17.98;;;8.98;;
75427;SDS011;64008;55.612;37.698;2023-09-19T05:38:12;14.80;;;7.22;;
75427;SDS011;64008;55.612;37.698;2023-09-19T05:43:07;19.38;;;8.43;;
75427;SDS011;64008;55.612;37.698;2023-09-19T05:45:33;13.43;;;7.20;;
75427;SDS011;64008;55.612;37.698;2023-09-19T05:48:06;16.48;;;7.93;;
75427;SDS011;64008;55.612;37.698;2023-09-19T05:50:33;14.15;;;7.78;;
75427;SDS011;64008;55.612;37.698;2023-09-19T05:52:59;12.27;;;6.70;;
75427;SDS011;64008;55.612;37.698;2023-09-19T05:55:24;14.00;;;7.70;;
75427;SDS011;64008;55.612;37.698;2023-09-19T05:57:50;12.32;;;7.72;;
75427;SDS011;64008;55.612;37.698;2023-09-19T06:02:54;14.23;;;7.43;;
75427;SDS011;64008;55.612;37.698;2023-09-19T06:05:22;12.00;;;7.82;;
75427;SDS011;64008;55.612;37.698;2023-09-19T06:07:48;14.02;;;6.95;;
75427;SDS011;64008;55.612;37.698;2023-09-19T06:12:42;13.02;;;7.43;;
75427;SDS011;64008;55.612;37.698;2023-09-19T06:15:12;12.77;;;6.82;;
75427;SDS011;64008;55.612;37.698;2023-09-19T06:17:47;16.55;;;7.25;;
75427;SDS011;64008;55.612;37.698;2023-09-19T06:20:13;13.25;;;7.82;;
75427;SDS011;64008;55.612;37.698;2023-09-19T06:22:43;14.35;;;7.80;;
75427;SDS011;64008;55.612;37.698;2023-09-19T06:25:10;15.77;;;7.32;;
75427;SDS011;64008;55.612;37.698;2023-09-19T06:27:37;14.00;;;7.68;;
75427;SDS011;64008;55.612;37.698;2023-09-19T06:30:04;17.98;;;8.25;;
75427;SDS011;64008;55.612;37.698;2023-09-19T06:32:31;14.48;;;7.38;;
75427;SDS011;64008;55.612;37.698;2023-09-19T06:34:57;13.07;;;7.82;;
75427;SDS011;64008;55.612;37.698;2023-09-19T06:37:26;14.07;;;7.63;;
75427;SDS011;64008;55.612;37.698;2023-09-19T06:39:53;15.95;;;7.88;;
75427;SDS011;64008;55.612;37.698;2023-09-19T06:42:18;15.93;;;8.18;;
75427;SDS011;64008;55.612;37.698;2023-09-19T06:44:44;16.15;;;7.75;;
75427;SDS011;64008;55.612;37.698;2023-09-19T06:47:10;14.73;;;8.82;;
75427;SDS011;64008;55.612;37.698;2023-09-19T06:49:35;17.67;;;8.48;;
75427;SDS011;64008;55.612;37.698;2023-09-19T06:52:01;20.17;;;10.35;;
75427;SDS011;64008;55.612;37.698;2023-09-19T06:54:27;16.90;;;9.25;;
75427;SDS011;64008;55.612;37.698;2023-09-19T06:56:59;13.38;;;7.25;;
75427;SDS011;64008;55.612;37.698;2023-09-19T06:59:25;16.75;;;8.65;;
75427;SDS011;64008;55.612;37.698;2023-09-19T07:01:50;17.08;;;8.05;;
75427;SDS011;64008;55.612;37.698;2023-09-19T07:04:16;15.00;;;9.40;;
75427;SDS011;64008;55.612;37.698;2023-09-19T07:06:44;17.60;;;8.75;;
75427;SDS011;64008;55.612;37.698;2023-09-19T07:09:14;17.35;;;8.35;;
75427;SDS011;64008;55.612;37.698;2023-09-19T07:11:40;15.30;;;8.10;;
75427;SDS011;64008;55.612;37.698;2023-09-19T07:14:06;16.17;;;9.02;;
75427;SDS011;64008;55.612;37.698;2023-09-19T07:16:31;17.48;;;9.02;;
75427;SDS011;64008;55.612;37.698;2023-09-19T07:18:57;14.05;;;8.90;;
75427;SDS011;64008;55.612;37.698;2023-09-19T07:21:23;16.00;;;8.95;;
75427;SDS011;64008;55.612;37.698;2023-09-19T07:23:49;18.60;;;8.68;;
75427;SDS011;64008;55.612;37.698;2023-09-19T07:26:15;13.80;;;7.85;;
75427;SDS011;64008;55.612;37.698;2023-09-19T07:28:41;18.08;;;9.07;;
75427;SDS011;64008;55.612;37.698;2023-09-19T07:31:07;14.60;;;7.90;;
75427;SDS011;64008;55.612;37.698;2023-09-19T07:33:35;14.13;;;7.85;;
75427;SDS011;64008;55.612;37.698;2023-09-19T07:38:27;18.23;;;9.68;;
75427;SDS011;64008;55.612;37.698;2023-09-19T07:40:52;16.42;;;8.70;;
75427;SDS011;64008;55.612;37.698;2023-09-19T07:43:18;12.75;;;6.43;;
75427;SDS011;64008;55.612;37.698;2023-09-19T07:45:43;18.77;;;8.70;;
75427;SDS011;64008;55.612;37.698;2023-09-19T07:48:09;17.20;;;8.98;;
75427;SDS011;64008;55.612;37.698;2023-09-19T07:50:40;16.90;;;9.27;;
75427;SDS011;64008;55.612;37.698;2023-09-19T07:53:08;17.25;;;8.93;;
75427;SDS011;64008;55.612;37.698;2023-09-19T07:55:34;18.30;;;9.07;;
75427;SDS011;64008;55.612;37.698;2023-09-19T07:57:59;17.17;;;8.65;;
75427;SDS011;64008;55.612;37.698;2023-09-19T08:00:25;18.55;;;9.18;;
75427;SDS011;64008;55.612;37.698;2023-09-19T08:02:51;14.88;;;8.07;;
75427;SDS011;64008;55.612;37.698;2023-09-19T08:05:20;13.57;;;7.20;;
75427;SDS011;64008;55.612;37.698;2023-09-19T08:07:45;16.40;;;8.38;;
75427;SDS011;64008;55.612;37.698;2023-09-19T08:10:15;15.23;;;8.25;;
75427;SDS011;64008;55.612;37.698;2023-09-19T08:12:44;16.48;;;8.80;;
75427;SDS011;64008;55.612;37.698;2023-09-19T08:15:14;13.88;;;7.90;;
75427;SDS011;64008;55.612;37.698;2023-09-19T08:17:40;14.65;;;7.93;;
75427;SDS011;64008;55.612;37.698;2023-09-19T08:20:06;19.35;;;8.88;;
75427;SDS011;64008;55.612;37.698;2023-09-19T08:22:32;14.27;;;8.20;;
75427;SDS011;64008;55.612;37.698;2023-09-19T08:24:58;15.60;;;8.77;;
75427;SDS011;64008;55.612;37.698;2023-09-19T08:27:24;15.45;;;8.27;;
75427;SDS011;64008;55.612;37.698;2023-09-19T08:29:52;13.73;;;8.15;;
75427;SDS011;64008;55.612;37.698;2023-09-19T08:32:18;15.27;;;8.23;;
75427;SDS011;64008;55.612;37.698;2023-09-19T08:34:49;15.73;;;8.80;;
75427;SDS011;64008;55.612;37.698;2023-09-19T08:37:14;21.60;;;9.68;;
75427;SDS011;64008;55.612;37.698;2023-09-19T08:39:42;29.75;;;8.70;;
75427;SDS011;64008;55.612;37.698;2023-09-19T08:42:08;18.40;;;9.32;;
75427;SDS011;64008;55.612;37.698;2023-09-19T08:44:36;14.18;;;7.90;;
75427;SDS011;64008;55.612;37.698;2023-09-19T08:47:14;16.90;;;8.55;;
75427;SDS011;64008;55.612;37.698;2023-09-19T08:52:42;14.55;;;7.75;;
75427;SDS011;64008;55.612;37.698;2023-09-19T08:55:12;17.25;;;8.73;;
75427;SDS011;64008;55.612;37.698;2023-09-19T08:57:45;12.90;;;8.15;;
75427;SDS011;64008;55.612;37.698;2023-09-19T09:00:14;16.75;;;7.75;;
75427;SDS011;64008;55.612;37.698;2023-09-19T09:02:43;13.13;;;7.88;;
75427;SDS011;64008;55.612;37.698;2023-09-19T09:05:10;11.07;;;6.97;;
75427;SDS011;64008;55.612;37.698;2023-09-19T09:07:36;15.35;;;8.45;;
75427;SDS011;64008;55.612;37.698;2023-09-19T09:10:03;17.38;;;9.27;;
75427;SDS011;64008;55.612;37.698;2023-09-19T09:12:29;18.02;;;9.85;;
75427;SDS011;64008;55.612;37.698;2023-09-19T09:14:55;16.02;;;8.25;;
75427;SDS011;64008;55.612;37.698;2023-09-19T09:19:48;15.77;;;7.72;;
75427;SDS011;64008;55.612;37.698;2023-09-19T09:22:13;15.43;;;7.15;;
75427;SDS011;64008;55.612;37.698;2023-09-19T09:24:55;14.43;;;8.20;;
75427;SDS011;64008;55.612;37.698;2023-09-19T09:27:28;15.65;;;8.15;;
75427;SDS011;64008;55.612;37.698;2023-09-19T09:29:54;17.65;;;8.73;;
75427;SDS011;64008;55.612;37.698;2023-09-19T09:34:52;14.77;;;8.15;;
75427;SDS011;64008;55.612;37.698;2023-09-19T09:37:19;16.73;;;8.10;;
75427;SDS011;64008;55.612;37.698;2023-09-19T09:39:53;16.92;;;9.70;;
75427;SDS011;64008;55.612;37.698;2023-09-19T09:42:31;14.88;;;7.90;;
75427;SDS011;64008;55.612;37.698;2023-09-19T09:45:12;17.77;;;8.23;;
75427;SDS011;64008;55.612;37.698;2023-09-19T09:47:43;17.50;;;8.82;;
75427;SDS011;64008;55.612;37.698;2023-09-19T09:50:33;13.23;;;7.32;;
75427;SDS011;64008;55.612;37.698;2023-09-19T09:53:25;14.80;;;8.32;;
75427;SDS011;64008;55.612;37.698;2023-09-19T09:55:58;12.90;;;6.60;;
75427;SDS011;64008;55.612;37.698;2023-09-19T09:58:24;16.20;;;8.20;;
75427;SDS011;64008;55.612;37.698;2023-09-19T10:00:54;18.45;;;8.02;;
75427;SDS011;64008;55.612;37.698;2023-09-19T10:03:39;11.85;;;6.47;;
75427;SDS011;64008;55.612;37.698;2023-09-19T10:06:09;19.45;;;7.32;;
75427;SDS011;64008;55.612;37.698;2023-09-19T10:08:58;16.90;;;7.43;;
75427;SDS011;64008;55.612;37.698;2023-09-19T10:11:43;15.02;;;7.15;;
75427;SDS011;64008;55.612;37.698;2023-09-19T10:14:11;13.10;;;7.68;;
75427;SDS011;64008;55.612;37.698;2023-09-19T10:16:40;17.90;;;7.90;;
75427;SDS011;64008;55.612;37.698;2023-09-19T10:19:12;17.73;;;6.93;;
75427;SDS011;64008;55.612;37.698;2023-09-19T10:21:53;15.15;;;7.50;;
75427;SDS011;64008;55.612;37.698;2023-09-19T10:24:21;18.83;;;7.82;;
75427;SDS011;64008;55.612;37.698;2023-09-19T10:26:48;16.15;;;7.55;;
75427;SDS011;64008;55.612;37.698;2023-09-19T10:29:15;16.30;;;7.05;;
75427;SDS011;64008;55.612;37.698;2023-09-19T10:31:43;16.85;;;8.65;;
75427;SDS011;64008;55.612;37.698;2023-09-19T10:34:14;13.75;;;6.95;;
75427;SDS011;64008;55.612;37.698;2023-09-19T10:36:40;12.32;;;6.60;;
75427;SDS011;64008;55.612;37.698;2023-09-19T10:39:11;14.82;;;7.93;;
75427;SDS011;64008;55.612;37.698;2023-09-19T10:41:39;18.35;;;6.97;;
75427;SDS011;64008;55.612;37.698;2023-09-19T10:44:05;16.98;;;7.65;;
75427;SDS011;64008;55.612;37.698;2023-09-19T10:46:31;12.05;;;5.20;;
75427;SDS011;64008;55.612;37.698;2023-09-19T10:49:01;11.27;;;6.45;;
75427;SDS011;64008;55.612;37.698;2023-09-19T10:51:38;12.82;;;6.35;;
75427;SDS011;64008;55.612;37.698;2023-09-19T10:54:08;13.93;;;6.25;;
75427;SDS011;64008;55.612;37.698;2023-09-19T10:56:38;13.98;;;7.00;;
75427;SDS011;64008;55.612;37.698;2023-09-19T10:59:11;13.88;;;6.53;;
75427;SDS011;64008;55.612;37.698;2023-09-19T11:01:41;17.38;;;7.13;;
75427;SDS011;64008;55.612;37.698;2023-09-19T11:15:06;16.02;;;8.13;;
75427;SDS011;64008;55.612;37.698;2023-09-19T11:17:39;17.45;;;7.75;;
75427;SDS011;64008;55.612;37.698;2023-09-19T11:28:28;13.23;;;6.43;;
75427;SDS011;64008;55.612;37.698;2023-09-19T11:30:48;9.05;;;5.15;;
75427;SDS011;64008;55.612;37.698;2023-09-19T11:33:21;13.10;;;6.38;;
75427;SDS011;64008;55.612;37.698;2023-09-19T11:36:07;12.05;;;5.72;;
75427;SDS011;64008;55.612;37.698;2023-09-19T11:43:54;8.65;;;5.30;;
75427;SDS011;64008;55.612;37.698;2023-09-19T11:46:59;14.32;;;5.72;;
75427;SDS011;64008;55.612;37.698;2023-09-19T11:49:28;10.57;;;5.78;;
75427;SDS011;64008;55.612;37.698;2023-09-19T11:51:57;9.93;;;6.10;;
75427;SDS011;64008;55.612;37.698;2023-09-19T11:54:27;13.25;;;4.63;;
75427;SDS011;64008;55.612;37.698;2023-09-19T11:56:56;9.48;;;4.95;;
75427;SDS011;64008;55.612;37.698;2023-09-19T11:59:23;13.07;;;4.93;;
75427;SDS011;64008;55.612;37.698;2023-09-19T12:01:52;9.10;;;4.18;;
75427;SDS011;64008;55.612;37.698;2023-09-19T12:04:35;8.93;;;4.43;;
75427;SDS011;64008;55.612;37.698;2023-09-19T12:07:07;10.70;;;4.95;;
75427;SDS011;64008;55.612;37.698;2023-09-19T12:09:39;9.40;;;4.40;;
75427;SDS011;64008;55.612;37.698;2023-09-19T12:14:48;9.77;;;4.00;;
75427;SDS011;64008;55.612;37.698;2023-09-19T12:17:17;11.20;;;4.72;;
75427;SDS011;64008;55.612;37.698;2023-09-19T12:19:53;7.78;;;4.53;;
75427;SDS011;64008;55.612;37.698;2023-09-19T12:22:19;7.40;;;4.60;;
75427;SDS011;64008;55.612;37.698;2023-09-19T12:24:47;8.65;;;4.40;;
75427;SDS011;64008;55.612;37.698;2023-09-19T12:27:13;10.40;;;5.53;;
75427;SDS011;64008;55.612;37.698;2023-09-19T12:32:09;7.97;;;4.40;;
75427;SDS011;64008;55.612;37.698;2023-09-19T12:34:35;8.90;;;4.80;;
75427;SDS011;64008;55.612;37.698;2023-09-19T12:40:08;8.90;;;4.00;;
75427;SDS011;64008;55.612;37.698;2023-09-19T12:42:47;9.82;;;4.38;;
75427;SDS011;64008;55.612;37.698;2023-09-19T12:45:13;8.65;;;3.88;;
75427;SDS011;64008;55.612;37.698;2023-09-19T12:48:17;7.28;;;4.38;;
75427;SDS011;64008;55.612;37.698;2023-09-19T12:51:07;8.90;;;4.53;;
75427;SDS011;64008;55.612;37.698;2023-09-19T12:53:42;7.70;;;4.05;;
75427;SDS011;64008;55.612;37.698;2023-09-19T12:56:11;7.03;;;4.05;;
75427;SDS011;64008;55.612;37.698;2023-09-19T12:58:56;7.25;;;4.15;;
75427;SDS011;64008;55.612;37.698;2023-09-19T13:01:29;9.90;;;4.32;;
75427;SDS011;64008;55.612;37.698;2023-09-19T13:06:47;7.05;;;3.85;;
75427;SDS011;64008;55.612;37.698;2023-09-19T13:09:14;9.75;;;5.55;;
75427;SDS011;64008;55.612;37.698;2023-09-19T13:11:41;7.80;;;4.50;;
75427;SDS011;64008;55.612;37.698;2023-09-19T13:14:13;7.68;;;4.32;;
75427;SDS011;64008;55.612;37.698;2023-09-19T13:16:54;8.07;;;4.43;;
75427;SDS011;64008;55.612;37.698;2023-09-19T13:22:37;8.23;;;4.50;;
75427;SDS011;64008;55.612;37.698;2023-09-19T13:25:20;7.00;;;4.28;;
75427;SDS011;64008;55.612;37.698;2023-09-19T13:27:47;8.23;;;5.22;;
75427;SDS011;64008;55.612;37.698;2023-09-19T13:30:16;6.82;;;4.45;;
75427;SDS011;64008;55.612;37.698;2023-09-19T13:32:43;6.97;;;4.18;;
75427;SDS011;64008;55.612;37.698;2023-09-19T13:35:10;7.85;;;3.97;;
75427;SDS011;64008;55.612;37.698;2023-09-19T13:37:38;12.80;;;4.45;;
75427;SDS011;64008;55.612;37.698;2023-09-19T13:42:36;7.55;;;4.13;;
75427;SDS011;64008;55.612;37.698;2023-09-19T13:45:03;8.73;;;4.53;;
75427;SDS011;64008;55.612;37.698;2023-09-19T13:47:32;9.63;;;4.00;;
75427;SDS011;64008;55.612;37.698;2023-09-19T13:49:59;7.75;;;3.90;;
75427;SDS011;64008;55.612;37.698;2023-09-19T13:52:26;8.27;;;4.82;;
75427;SDS011;64008;55.612;37.698;2023-09-19T13:54:55;7.90;;;4.30;;
75427;SDS011;64008;55.612;37.698;2023-09-19T13:57:24;8.00;;;5.00;;
75427;SDS011;64008;55.612;37.698;2023-09-19T13:59:54;8.68;;;5.25;;
75427;SDS011;64008;55.612;37.698;2023-09-19T14:02:20;9.65;;;5.85;;
75427;SDS011;64008;55.612;37.698;2023-09-19T14:04:48;10.98;;;6.10;;
75427;SDS011;64008;55.612;37.698;2023-09-19T14:07:14;9.50;;;6.13;;
75427;SDS011;64008;55.612;37.698;2023-09-19T14:09:40;8.10;;;5.30;;
75427;SDS011;64008;55.612;37.698;2023-09-19T14:12:06;11.95;;;5.95;;
75427;SDS011;64008;55.612;37.698;2023-09-19T14:14:32;11.50;;;5.88;;
75427;SDS011;64008;55.612;37.698;2023-09-19T14:16:58;12.10;;;5.70;;
75427;SDS011;64008;55.612;37.698;2023-09-19T14:19:26;11.27;;;6.53;;
75427;SDS011;64008;55.612;37.698;2023-09-19T14:21:54;11.00;;;5.88;;
75427;SDS011;64008;55.612;37.698;2023-09-19T14:24:23;9.90;;;5.85;;
75427;SDS011;64008;55.612;37.698;2023-09-19T14:26:48;10.27;;;5.30;;
75427;SDS011;64008;55.612;37.698;2023-09-19T14:29:14;11.50;;;6.18;;
75427;SDS011;64008;55.612;37.698;2023-09-19T14:31:40;12.57;;;6.03;;
75427;SDS011;64008;55.612;37.698;2023-09-19T14:34:07;15.02;;;6.88;;
75427;SDS011;64008;55.612;37.698;2023-09-19T14:36:35;11.52;;;6.60;;
75427;SDS011;64008;55.612;37.698;2023-09-19T14:39:01;15.70;;;7.00;;
75427;SDS011;64008;55.612;37.698;2023-09-19T14:41:27;10.38;;;6.20;;
75427;SDS011;64008;55.612;37.698;2023-09-19T14:43:53;14.80;;;7.18;;
75427;SDS011;64008;55.612;37.698;2023-09-19T14:46:20;15.20;;;6.68;;
75427;SDS011;64008;55.612;37.698;2023-09-19T14:48:46;13.27;;;7.35;;
75427;SDS011;64008;55.612;37.698;2023-09-19T14:51:12;16.80;;;6.57;;
75427;SDS011;64008;55.612;37.698;2023-09-19T14:53:39;13.60;;;7.75;;
75427;SDS011;64008;55.612;37.698;2023-09-19T14:56:09;13.23;;;7.15;;
75427;SDS011;64008;55.612;37.698;2023-09-19T14:58:36;12.73;;;6.97;;
75427;SDS011;64008;55.612;37.698;2023-09-19T15:01:07;16.67;;;7.68;;
75427;SDS011;64008;55.612;37.698;2023-09-19T15:06:02;16.13;;;7.05;;
75427;SDS011;64008;55.612;37.698;2023-09-19T15:08:30;15.80;;;7.50;;
75427;SDS011;64008;55.612;37.698;2023-09-19T15:10:56;16.88;;;7.68;;
75427;SDS011;64008;55.612;37.698;2023-09-19T15:13:23;11.85;;;7.05;;
75427;SDS011;64008;55.612;37.698;2023-09-19T15:15:58;14.43;;;7.75;;
75427;SDS011;64008;55.612;37.698;2023-09-19T15:18:27;14.85;;;7.35;;
75427;SDS011;64008;55.612;37.698;2023-09-19T15:20:55;16.85;;;8.05;;
75427;SDS011;64008;55.612;37.698;2023-09-19T15:23:20;11.25;;;6.55;;
75427;SDS011;64008;55.612;37.698;2023-09-19T15:25:49;15.20;;;7.50;;
75427;SDS011;64008;55.612;37.698;2023-09-19T15:28:15;15.70;;;7.45;;
75427;SDS011;64008;55.612;37.698;2023-09-19T15:30:40;18.17;;;7.13;;
75427;SDS011;64008;55.612;37.698;2023-09-19T15:33:06;13.50;;;7.95;;
75427;SDS011;64008;55.612;37.698;2023-09-19T15:35:31;15.70;;;8.05;;
75427;SDS011;64008;55.612;37.698;2023-09-19T15:37:57;18.75;;;7.75;;
75427;SDS011;64008;55.612;37.698;2023-09-19T15:40:25;16.30;;;7.30;;
75427;SDS011;64008;55.612;37.698;2023-09-19T15:42:52;19.70;;;8.30;;
75427;SDS011;64008;55.612;37.698;2023-09-19T15:45:19;15.70;;;7.57;;
75427;SDS011;64008;55.612;37.698;2023-09-19T15:47:44;17.13;;;7.43;;
75427;SDS011;64008;55.612;37.698;2023-09-19T15:50:10;15.63;;;7.20;;
75427;SDS011;64008;55.612;37.698;2023-09-19T15:52:39;14.40;;;7.70;;
75427;SDS011;64008;55.612;37.698;2023-09-19T15:55:05;14.52;;;7.05;;
75427;SDS011;64008;55.612;37.698;2023-09-19T15:57:34;13.38;;;6.97;;